Hauptseite
METAR-TAF:

METAR-TAF

Flughäfen :

Bilbao, Spanien

Flughafen Bilbao

Breite: 43-18N, Länge: 002-56W, Höhe: 42 m

Beobachtung

Neuester Wetterbericht von vor 21 Minuten, um 11:30 UTC
Wind 1 kt aus unterschiedlichen Richtungen
Temperatur 15°C
Luftfeuchtigkeit 82%
Luftdruck 1030 hPa
Sichtweite 10 km oder mehr
Leicht bewölkt in der Höhe von 2500 ft
Durchbrochene Bewölkung in der Höhe von 4500 ft

METAR: LEBB 231130Z VRB01KT 9999 FEW025 BKN045 15/12 Q1030 NOSIG

Zeit: 12:51 (11:51 UTC)

Prognose

Neuester Wetterbericht von vor 51 Minuten, um 11:00 UTC
Gültige Prognose vom 23 um 12 UTC bis 24 um 12 UTC
Wind 5 kt aus Südwest
Sichtweite 10 km oder mehr
Aufgelockert bewölkt in der Höhe von 4000 ft

TAF: LEBB 231100Z 2312/2412 23005KT 9999 SCT040 TX17/2314Z TN10/2406Z

Wetterbeobachtungen und Prognosen von mehr als 4000 Flughäfen (METAR und TAF Bericht).

Die verfügbaren Stationen werden durch gelbe und rote Markierungen auf der Karte dargestellt.

Führen Sie die Maus auf sie, um den Namen der Station zu sehen.

Darauf klicken, um die Beobachtung von Wetterbeobachtungen und Prognosen zu sehen.

Um die Karte zu ändern : klicken Sie auf den grünen Tasten mit einem schwarzen Kreuz Zum Vergrößern, auf den grünen Button mit einem Gedankenstrich zu verkleinern, oder auf die grünen Pfeile für benachbarte Karten.


METAR-TAF: